Time;durP1;ratioP1;P1;durP2;ratioP2;P2;SDS_P1;SDS_P2;PMS_P1;PMS_P2;Temp;Humidity;BMP_temperature;BMP_pressure;BME280_temperature;BME280_humidity;BME280_pressure;Samples;Min_cycle;Max_cycle;Signal;HPM_P1;HPM_P2
2022/10/12 00:00:43;;;;;;;32.73;15.47;;;14.00;94.00;;;;;;5027993;28;20193;-70
2022/10/12 00:03:10;;;;;;;31.90;15.93;;;14.00;94.10;;;;;;5026419;28;20682;-70
2022/10/12 00:05:37;;;;;;;30.30;16.00;;;14.00;94.10;;;;;;5026939;28;20197;-70
2022/10/12 00:08:03;;;;;;;32.73;16.20;;;13.90;94.20;;;;;;5026549;28;20951;-71
2022/10/12 00:10:28;;;;;;;32.23;18.37;;;13.90;94.30;;;;;;5027092;28;20507;-70
2022/10/12 00:13:00;;;;;;;39.97;16.90;;;13.90;94.30;;;;;;5030056;28;20507;-71
2022/10/12 00:15:26;;;;;;;35.87;17.80;;;13.80;94.30;;;;;;5027201;28;20209;-70
2022/10/12 00:17:52;;;;;;;38.43;18.97;;;13.70;94.50;;;;;;5028840;28;20526;-71
2022/10/12 00:20:18;;;;;;;34.60;16.37;;;13.70;94.60;;;;;;5024492;28;20263;-70
2022/10/12 00:22:43;;;;;;;36.40;16.57;;;13.60;94.80;;;;;;5028308;28;20483;-72
2022/10/12 00:25:09;;;;;;;35.17;16.20;;;13.60;94.90;;;;;;5024551;28;20205;-71
2022/10/12 00:27:35;;;;;;;30.80;16.87;;;13.60;94.90;;;;;;5029468;28;20204;-70
2022/10/12 00:30:00;;;;;;;32.43;16.97;;;13.60;94.90;;;;;;5026078;28;20239;-71
2022/10/12 00:32:26;;;;;;;26.33;15.70;;;13.60;94.90;;;;;;5028313;28;20177;-70
2022/10/12 00:34:51;;;;;;;30.77;16.77;;;13.50;94.90;;;;;;5022773;28;20193;-70
2022/10/12 00:37:17;;;;;;;29.57;16.07;;;13.60;95.00;;;;;;5019258;28;20220;-70
2022/10/12 00:39:43;;;;;;;27.40;15.43;;;13.50;95.00;;;;;;5028071;28;20679;-71
2022/10/12 00:42:11;;;;;;;33.80;16.67;;;13.50;95.00;;;;;;5023303;28;20209;-71
2022/10/12 00:44:43;;;;;;;29.40;16.13;;;13.50;95.00;;;;;;5028537;28;20177;-71
2022/10/12 00:47:26;;;;;;;35.53;15.60;;;13.50;95.10;;;;;;5025840;28;20467;-70
2022/10/12 00:50:13;;;;;;;32.77;17.10;;;13.50;95.10;;;;;;5029690;28;20474;-70
2022/10/12 00:52:51;;;;;;;40.67;17.90;;;13.50;95.10;;;;;;5025890;28;20911;-70
2022/10/12 00:55:19;;;;;;;33.17;17.37;;;13.40;95.10;;;;;;5023060;28;20831;-70
2022/10/12 00:57:46;;;;;;;36.40;16.90;;;13.40;95.00;;;;;;5031054;28;21090;-71
2022/10/12 01:00:12;;;;;;;34.03;17.47;;;13.40;95.00;;;;;;5030913;28;21000;-70
2022/10/12 01:02:41;;;;;;;32.03;16.23;;;13.40;95.00;;;;;;5030753;28;20558;-69
2022/10/12 01:05:08;;;;;;;37.83;17.37;;;13.30;95.10;;;;;;5031769;28;20467;-70
2022/10/12 01:07:34;;;;;;;32.93;17.93;;;13.30;95.30;;;;;;5033656;28;20423;-71
2022/10/12 01:09:59;;;;;;;38.70;17.60;;;13.30;95.20;;;;;;5029709;28;20469;-70
2022/10/12 01:12:26;;;;;;;36.53;19.37;;;13.30;95.20;;;;;;5032036;28;20196;-70
2022/10/12 01:14:52;;;;;;;32.83;18.30;;;13.30;95.20;;;;;;5029457;28;20228;-69
2022/10/12 01:17:27;;;;;;;28.57;15.80;;;13.20;95.30;;;;;;5034409;28;20435;-70
2022/10/12 01:20:27;;;;;;;34.43;17.57;;;13.20;95.40;;;;;;5027834;28;20431;-70
2022/10/12 01:23:17;;;;;;;32.13;17.30;;;13.20;95.50;;;;;;5032743;28;20498;-70
2022/10/12 01:26:09;;;;;;;37.60;17.47;;;13.10;95.50;;;;;;5031693;28;20451;-70
2022/10/12 01:28:57;;;;;;;41.50;19.00;;;13.10;95.50;;;;;;5033605;28;20462;-70
2022/10/12 01:31:51;;;;;;;30.43;15.97;;;13.00;95.60;;;;;;5031041;28;20416;-71
2022/10/12 01:34:27;;;;;;;33.13;16.17;;;13.00;95.80;;;;;;5031375;28;20416;-70
2022/10/12 01:37:02;;;;;;;35.50;17.10;;;13.10;95.80;;;;;;5027383;28;20491;-70
2022/10/12 01:39:42;;;;;;;36.27;17.53;;;13.10;95.80;;;;;;5035077;28;20420;-71
2022/10/12 01:42:14;;;;;;;34.30;17.17;;;13.00;95.70;;;;;;5028549;28;20475;-70
2022/10/12 01:44:40;;;;;;;28.40;15.20;;;13.00;95.70;;;;;;5029474;28;20435;-71
2022/10/12 01:47:05;;;;;;;33.77;17.10;;;13.00;95.80;;;;;;5029174;28;20900;-70
2022/10/12 01:49:33;;;;;;;36.53;17.07;;;12.90;95.70;;;;;;5030501;28;20224;-70
2022/10/12 01:52:18;;;;;;;34.70;18.70;;;12.90;96.00;;;;;;5024434;28;20189;-71
2022/10/12 01:54:55;;;;;;;30.93;15.63;;;12.80;96.10;;;;;;5031168;28;20932;-71
2022/10/12 01:57:42;;;;;;;34.00;15.80;;;12.80;96.30;;;;;;5029959;28;21057;-70
2022/10/12 02:00:16;;;;;;;30.67;17.10;;;12.80;96.20;;;;;;5034605;28;20420;-70
2022/10/12 02:02:55;;;;;;;35.30;16.60;;;12.80;96.20;;;;;;5029192;28;20824;-71
2022/10/12 02:05:35;;;;;;;28.70;15.80;;;12.80;96.20;;;;;;5024898;28;20474;-71
2022/10/12 02:08:20;;;;;;;35.20;18.07;;;12.70;96.10;;;;;;5032745;28;20522;-71
2022/10/12 02:11:09;;;;;;;31.90;16.97;;;12.70;96.10;;;;;;5031757;28;20851;-72
2022/10/12 02:13:44;;;;;;;31.90;17.13;;;12.60;96.20;;;;;;5034367;28;20430;-70
2022/10/12 02:16:19;;;;;;;33.57;16.30;;;12.60;96.30;;;;;;5030972;28;20497;-70
2022/10/12 02:18:50;;;;;;;40.30;18.53;;;12.50;96.30;;;;;;5034915;28;20806;-71
2022/10/12 02:21:21;;;;;;;32.63;18.27;;;12.50;96.30;;;;;;5035235;28;20440;-70
2022/10/12 02:23:49;;;;;;;35.87;17.70;;;12.30;96.50;;;;;;5033728;28;20991;-69
2022/10/12 02:26:16;;;;;;;37.10;18.30;;;12.40;96.60;;;;;;5033587;28;20470;-71
2022/10/12 02:28:43;;;;;;;32.60;17.67;;;12.30;96.60;;;;;;5036362;28;20452;-70
2022/10/12 02:31:29;;;;;;;42.90;20.17;;;12.30;96.70;;;;;;5034237;28;20935;-71
2022/10/12 02:34:03;;;;;;;38.70;18.00;;;12.20;96.90;;;;;;5033337;28;20500;-70
2022/10/12 02:37:01;;;;;;;36.63;17.77;;;12.20;97.00;;;;;;5031535;28;20455;-69
2022/10/12 02:39:42;;;;;;;35.10;17.00;;;12.30;97.10;;;;;;5031110;28;20420;-70
2022/10/12 02:42:12;;;;;;;38.77;18.53;;;12.30;97.00;;;;;;5039322;28;20482;-71
2022/10/12 02:44:41;;;;;;;33.17;17.50;;;12.30;96.80;;;;;;5036591;28;20905;-71
2022/10/12 02:47:09;;;;;;;36.90;17.53;;;12.30;96.80;;;;;;5030886;28;20526;-70
2022/10/12 02:49:35;;;;;;;37.37;18.00;;;12.30;96.80;;;;;;5024903;28;20801;-70
2022/10/12 02:52:05;;;;;;;36.80;16.53;;;12.30;96.80;;;;;;5032489;28;20477;-70
2022/10/12 02:54:31;;;;;;;33.87;17.47;;;12.40;96.80;;;;;;5032343;28;20431;-70
2022/10/12 02:56:57;;;;;;;34.70;18.50;;;12.40;96.70;;;;;;5025528;28;20432;-70
2022/10/12 02:59:22;;;;;;;32.80;17.40;;;12.40;96.50;;;;;;5030046;28;20431;-71
2022/10/12 03:01:48;;;;;;;33.50;16.70;;;12.40;96.40;;;;;;5030001;28;20335;-70
2022/10/12 03:04:14;;;;;;;36.07;18.90;;;12.40;96.50;;;;;;5029389;28;20291;-71
2022/10/12 03:06:41;;;;;;;32.83;16.60;;;12.40;96.50;;;;;;5024429;28;20558;-70
2022/10/12 03:09:07;;;;;;;37.30;18.23;;;12.40;96.60;;;;;;5027994;28;20423;-71
2022/10/12 03:11:33;;;;;;;33.23;18.10;;;12.40;96.60;;;;;;5028695;28;20515;-71
2022/10/12 03:13:59;;;;;;;35.00;17.57;;;12.50;96.60;;;;;;5027663;28;20558;-70
2022/10/12 03:16:25;;;;;;;35.90;17.90;;;12.50;96.60;;;;;;5026240;28;20652;-70
2022/10/12 03:18:50;;;;;;;33.43;16.53;;;12.60;96.60;;;;;;5025348;28;20178;-70
2022/10/12 03:21:16;;;;;;;30.57;16.67;;;12.60;96.40;;;;;;5030001;28;20424;-70
2022/10/12 03:23:42;;;;;;;28.00;15.47;;;12.60;96.10;;;;;;5029447;28;20661;-71
2022/10/12 03:26:07;;;;;;;33.10;15.80;;;12.50;96.00;;;;;;5027590;28;20205;-71
2022/10/12 03:28:33;;;;;;;29.67;16.03;;;12.50;95.90;;;;;;5027406;28;20343;-71
2022/10/12 03:30:59;;;;;;;30.10;17.30;;;12.50;95.80;;;;;;5026495;28;20193;-70
2022/10/12 03:33:25;;;;;;;33.97;16.10;;;12.50;95.80;;;;;;5028875;28;20419;-70
2022/10/12 03:35:51;;;;;;;44.03;16.80;;;12.50;95.80;;;;;;5025880;28;20551;-70
2022/10/12 03:38:18;;;;;;;35.50;17.27;;;12.40;96.00;;;;;;5029940;28;20181;-70
2022/10/12 03:40:44;;;;;;;29.63;16.27;;;12.40;96.20;;;;;;5024506;28;20682;-70
2022/10/12 03:43:11;;;;;;;39.47;17.63;;;12.40;96.30;;;;;;5029314;28;20991;-70
2022/10/12 03:45:37;;;;;;;31.43;16.87;;;12.50;96.40;;;;;;5025447;28;20463;-71
2022/10/12 03:48:04;;;;;;;36.83;18.10;;;12.50;96.50;;;;;;5029709;28;20419;-70
2022/10/12 03:50:32;;;;;;;38.70;16.80;;;12.50;96.50;;;;;;5029060;28;20463;-70
2022/10/12 03:52:57;;;;;;;29.63;16.00;;;12.50;96.70;;;;;;5028882;28;20427;-69
2022/10/12 03:55:23;;;;;;;35.10;16.83;;;12.60;96.80;;;;;;5026590;28;20459;-70
2022/10/12 03:57:49;;;;;;;36.67;18.00;;;12.60;96.80;;;;;;5027786;28;20188;-70
2022/10/12 04:00:15;;;;;;;36.37;16.40;;;12.60;96.90;;;;;;5026233;28;20181;-70
2022/10/12 04:02:40;;;;;;;35.47;17.93;;;12.70;96.80;;;;;;5027118;28;20228;-71
2022/10/12 04:05:06;;;;;;;29.60;16.53;;;12.70;96.60;;;;;;5021813;28;20233;-70
2022/10/12 04:07:32;;;;;;;38.00;19.07;;;12.70;96.60;;;;;;5026944;28;20192;-70
2022/10/12 04:09:58;;;;;;;33.80;16.40;;;12.70;96.50;;;;;;5028569;28;20420;-69
2022/10/12 04:12:24;;;;;;;39.00;20.10;;;12.70;96.60;;;;;;5026162;28;20459;-70
2022/10/12 04:14:49;;;;;;;34.03;14.97;;;12.70;96.60;;;;;;5026648;28;20189;-69
2022/10/12 04:17:16;;;;;;;33.33;15.37;;;12.80;96.60;;;;;;5022448;28;20562;-71
2022/10/12 04:19:41;;;;;;;32.00;16.53;;;12.90;96.30;;;;;;5029163;28;20193;-70
2022/10/12 04:22:07;;;;;;;29.00;15.40;;;12.90;96.00;;;;;;5028467;28;20546;-70
2022/10/12 04:24:33;;;;;;;28.67;15.10;;;12.90;95.90;;;;;;5028821;28;20208;-70
2022/10/12 04:26:58;;;;;;;30.20;17.13;;;13.00;95.90;;;;;;5026377;28;20181;-69
2022/10/12 04:29:24;;;;;;;35.07;18.10;;;13.00;95.80;;;;;;5029008;28;20177;-70
2022/10/12 04:31:49;;;;;;;23.57;13.63;;;12.90;95.70;;;;;;5028867;28;20185;-71
2022/10/12 04:34:15;;;;;;;32.70;18.47;;;12.90;95.60;;;;;;5029054;28;20177;-70
2022/10/12 04:36:40;;;;;;;38.57;16.03;;;12.90;95.40;;;;;;5026302;28;20296;-70
2022/10/12 04:39:06;;;;;;;30.03;16.40;;;12.90;95.50;;;;;;5029086;28;20184;-69
2022/10/12 04:41:32;;;;;;;28.63;15.00;;;13.00;95.40;;;;;;5028347;28;20888;-71
2022/10/12 04:43:57;;;;;;;34.50;18.80;;;13.10;95.40;;;;;;5028861;28;20212;-71
2022/10/12 04:46:23;;;;;;;32.67;16.27;;;13.00;95.20;;;;;;5026728;28;20228;-71
2022/10/12 04:48:48;;;;;;;28.90;14.90;;;13.00;95.30;;;;;;5029239;28;20276;-71
2022/10/12 04:51:14;;;;;;;24.33;14.30;;;13.00;95.50;;;;;;5028694;28;20185;-70
2022/10/12 04:53:40;;;;;;;32.17;15.60;;;13.10;95.60;;;;;;5028959;28;20200;-70
2022/10/12 04:56:06;;;;;;;33.43;17.07;;;13.20;95.50;;;;;;5021884;28;20210;-70
2022/10/12 04:58:32;;;;;;;35.03;17.30;;;13.30;95.30;;;;;;5025216;28;20208;-71
2022/10/12 05:00:58;;;;;;;37.13;19.57;;;13.30;95.30;;;;;;5024048;28;20429;-72
2022/10/12 05:03:23;;;;;;;33.53;16.50;;;13.30;95.20;;;;;;5025510;28;20475;-71
2022/10/12 05:05:49;;;;;;;30.33;17.10;;;13.20;95.10;;;;;;5022615;28;20547;-71
2022/10/12 05:08:15;;;;;;;28.60;16.27;;;13.30;95.20;;;;;;5027000;28;20189;-72
2022/10/12 05:10:41;;;;;;;34.93;17.50;;;13.30;95.20;;;;;;5025941;28;20243;-71
2022/10/12 05:13:06;;;;;;;24.60;15.60;;;13.40;95.00;;;;;;5023238;28;20251;-71
2022/10/12 05:15:32;;;;;;;35.23;16.40;;;13.30;94.90;;;;;;5019648;28;20209;-71
2022/10/12 05:17:58;;;;;;;34.83;18.20;;;13.40;94.90;;;;;;5028111;28;20185;-71
2022/10/12 05:20:24;;;;;;;36.33;17.57;;;13.50;94.80;;;;;;5025670;28;20185;-72
2022/10/12 05:22:49;;;;;;;31.13;16.93;;;13.40;94.50;;;;;;5026381;28;20472;-72
2022/10/12 05:25:15;;;;;;;33.30;17.83;;;13.30;94.50;;;;;;5020479;28;20242;-72
2022/10/12 05:27:41;;;;;;;26.40;15.97;;;13.30;94.60;;;;;;5024879;28;20186;-72
2022/10/12 05:30:07;;;;;;;38.80;18.77;;;13.30;94.70;;;;;;5028086;28;20265;-71
2022/10/12 05:32:33;;;;;;;35.60;18.80;;;13.40;94.80;;;;;;5023065;28;20924;-71
2022/10/12 05:34:59;;;;;;;40.83;20.30;;;13.40;94.80;;;;;;5024000;28;20471;-73
2022/10/12 05:37:25;;;;;;;29.60;16.73;;;13.30;94.80;;;;;;5028669;28;20276;-73
2022/10/12 05:39:50;;;;;;;31.10;16.40;;;13.40;94.90;;;;;;5028461;28;20597;-72
2022/10/12 05:42:16;;;;;;;26.57;16.70;;;13.40;95.00;;;;;;5024282;28;20228;-73
2022/10/12 05:44:42;;;;;;;34.83;16.90;;;13.40;95.00;;;;;;5030911;28;20416;-70
2022/10/12 05:47:08;;;;;;;29.10;15.40;;;13.50;95.00;;;;;;5023653;28;20799;-71
2022/10/12 05:49:33;;;;;;;30.27;16.40;;;13.50;95.00;;;;;;5031210;28;20185;-70
2022/10/12 05:51:59;;;;;;;35.77;18.13;;;13.60;95.00;;;;;;5028026;28;20200;-71
2022/10/12 05:54:25;;;;;;;39.10;19.33;;;13.60;94.90;;;;;;5030816;28;20181;-71
2022/10/12 05:56:50;;;;;;;34.93;18.83;;;13.60;94.80;;;;;;5026541;28;20209;-71
2022/10/12 05:59:16;;;;;;;45.80;19.50;;;13.70;94.90;;;;;;5031735;28;20268;-70
2022/10/12 06:01:41;;;;;;;43.30;21.97;;;13.70;94.80;;;;;;5026597;28;20248;-71
2022/10/12 06:04:07;;;;;;;50.33;20.70;;;13.70;94.80;;;;;;5028839;28;20185;-72
2022/10/12 06:06:33;;;;;;;44.27;20.90;;;13.70;94.80;;;;;;5030825;28;20205;-72
2022/10/12 06:08:58;;;;;;;48.30;23.77;;;13.80;94.80;;;;;;5033155;28;20249;-74
2022/10/12 06:11:24;;;;;;;41.53;21.70;;;13.80;94.60;;;;;;5032260;28;20188;-74
2022/10/12 06:13:50;;;;;;;45.83;22.97;;;13.80;94.60;;;;;;5028009;28;20516;-74
2022/10/12 06:16:16;;;;;;;48.70;22.90;;;13.90;94.60;;;;;;5027557;28;20593;-74
2022/10/12 06:18:42;;;;;;;40.50;21.43;;;13.90;94.40;;;;;;5025537;28;20193;-74
2022/10/12 06:21:07;;;;;;;44.80;21.80;;;13.70;94.40;;;;;;5031950;28;20196;-75
2022/10/12 06:23:33;;;;;;;42.53;22.70;;;13.60;94.70;;;;;;5032440;28;20468;-73
2022/10/12 06:25:58;;;;;;;45.60;20.67;;;13.60;95.00;;;;;;5029399;28;20214;-74
2022/10/12 06:28:24;;;;;;;43.23;22.33;;;13.50;94.80;;;;;;5031330;28;20194;-74
2022/10/12 06:30:54;;;;;;;42.07;22.00;;;13.40;95.10;;;;;;5029462;28;20288;-72
2022/10/12 06:33:20;;;;;;;43.50;20.83;;;13.40;95.40;;;;;;5027316;28;20775;-72
2022/10/12 06:35:46;;;;;;;42.47;19.50;;;13.50;95.50;;;;;;5019548;28;20447;-72
2022/10/12 06:38:12;;;;;;;40.50;20.07;;;13.70;95.50;;;;;;5029335;28;20263;-72
2022/10/12 06:40:37;;;;;;;38.83;18.57;;;13.80;95.10;;;;;;5033504;28;20451;-70
2022/10/12 06:43:03;;;;;;;33.90;17.40;;;13.90;94.80;;;;;;5033231;28;20244;-73
2022/10/12 06:45:30;;;;;;;39.27;19.10;;;14.00;94.50;;;;;;5026027;28;20767;-71
2022/10/12 06:47:56;;;;;;;34.53;19.23;;;14.10;94.20;;;;;;5031678;28;20504;-71
2022/10/12 06:50:22;;;;;;;40.33;19.40;;;14.10;94.00;;;;;;5031068;28;20194;-72
2022/10/12 06:52:48;;;;;;;38.10;18.40;;;14.20;94.00;;;;;;5030853;28;20456;-71
2022/10/12 06:55:14;;;;;;;42.17;19.10;;;14.30;93.80;;;;;;5028476;28;20519;-71
2022/10/12 06:57:39;;;;;;;33.63;17.53;;;14.40;93.60;;;;;;5031151;28;20185;-72
2022/10/12 07:00:06;;;;;;;36.37;18.80;;;14.40;93.40;;;;;;5030234;28;20209;-73
2022/10/12 07:02:33;;;;;;;34.90;19.50;;;14.50;93.00;;;;;;5028371;28;20253;-72
2022/10/12 07:04:58;;;;;;;41.83;21.37;;;14.50;92.90;;;;;;5026269;28;20463;-70
2022/10/12 07:07:24;;;;;;;48.83;22.40;;;14.20;92.80;;;;;;5031311;28;20416;-72
2022/10/12 07:09:50;;;;;;;41.77;22.30;;;13.90;93.80;;;;;;5035695;28;20308;-70
2022/10/12 07:12:16;;;;;;;47.77;21.67;;;13.70;94.60;;;;;;5034539;28;20207;-74
2022/10/12 07:14:42;;;;;;;47.53;22.93;;;13.70;95.10;;;;;;5035143;28;20838;-70
2022/10/12 07:17:07;;;;;;;52.80;23.40;;;13.70;95.20;;;;;;5034706;28;20228;-71
2022/10/12 07:19:33;;;;;;;46.10;22.23;;;13.60;95.20;;;;;;5036306;28;20185;-72
2022/10/12 07:21:59;;;;;;;48.00;21.57;;;13.70;95.30;;;;;;5035038;28;20181;-70
2022/10/12 07:24:33;;;;;;;42.77;20.13;;;13.70;95.30;;;;;;5032331;28;20185;-71
2022/10/12 07:26:59;;;;;;;47.00;22.03;;;13.80;95.30;;;;;;5029190;28;20503;-70
2022/10/12 07:29:24;;;;;;;39.93;21.27;;;13.80;95.20;;;;;;5026717;28;20485;-70
2022/10/12 07:31:50;;;;;;;46.53;23.67;;;13.90;94.90;;;;;;5029873;28;20239;-71
2022/10/12 07:34:15;;;;;;;47.43;21.90;;;13.80;94.70;;;;;;5027577;28;20631;-72
2022/10/12 07:36:43;;;;;;;49.07;22.40;;;13.80;94.80;;;;;;5028131;28;20646;-72
2022/10/12 07:39:09;;;;;;;45.70;22.17;;;13.80;94.70;;;;;;5028569;28;20693;-72
2022/10/12 07:41:35;;;;;;;42.37;22.17;;;13.80;94.80;;;;;;5028243;28;20444;-72
2022/10/12 07:44:00;;;;;;;43.97;22.67;;;13.80;94.90;;;;;;5019400;28;20213;-72
2022/10/12 07:46:26;;;;;;;43.43;22.53;;;13.90;94.80;;;;;;5027325;28;20217;-71
2022/10/12 07:48:51;;;;;;;46.33;23.60;;;13.80;94.80;;;;;;5027963;28;20185;-70
2022/10/12 07:51:18;;;;;;;48.80;23.67;;;13.80;94.90;;;;;;5027616;28;20838;-73
2022/10/12 07:53:43;;;;;;;45.40;22.83;;;13.90;94.90;;;;;;5022960;28;20631;-72
2022/10/12 07:56:14;;;;;;;43.30;21.33;;;13.90;94.90;;;;;;5026105;28;20471;-71
2022/10/12 07:58:50;;;;;;;47.47;23.27;;;14.00;94.90;;;;;;5027296;28;20275;-72
2022/10/12 08:01:17;;;;;;;46.13;23.17;;;14.10;94.90;;;;;;5028478;28;20429;-72
2022/10/12 08:03:43;;;;;;;44.90;22.70;;;14.20;94.50;;;;;;5027455;28;20499;-72
2022/10/12 08:06:10;;;;;;;44.77;23.27;;;14.30;94.40;;;;;;5027127;28;20816;-73
2022/10/12 08:08:36;;;;;;;45.20;22.97;;;14.50;94.10;;;;;;5023839;28;20248;-75
2022/10/12 08:11:03;;;;;;;55.70;23.03;;;14.50;93.70;;;;;;5025473;28;21165;-75
2022/10/12 08:13:29;;;;;;;49.20;24.00;;;14.60;93.40;;;;;;5025806;28;20510;-72
2022/10/12 08:15:55;;;;;;;44.90;23.00;;;14.60;93.30;;;;;;5020671;28;20471;-73
2022/10/12 08:18:20;;;;;;;43.60;22.13;;;14.70;93.10;;;;;;5025612;28;20769;-73
2022/10/12 08:20:46;;;;;;;38.63;20.07;;;14.80;93.10;;;;;;5023903;28;20722;-71
2022/10/12 08:23:11;;;;;;;49.03;23.57;;;15.00;93.00;;;;;;5022194;28;20214;-73
2022/10/12 08:25:37;;;;;;;47.57;23.70;;;15.20;92.60;;;;;;5022097;28;20276;-75
2022/10/12 08:28:03;;;;;;;42.93;23.10;;;15.30;91.40;;;;;;5023869;28;20208;-74
2022/10/12 08:30:29;;;;;;;46.60;23.33;;;15.10;91.60;;;;;;5025035;28;20178;-73
2022/10/12 08:32:55;;;;;;;53.40;21.87;;;15.00;92.00;;;;;;5023089;28;20419;-73
2022/10/12 08:35:20;;;;;;;40.17;19.83;;;14.90;92.10;;;;;;5019910;28;20210;-75
2022/10/12 08:37:46;;;;;;;52.73;24.43;;;15.10;92.20;;;;;;5025991;28;20185;-71
2022/10/12 08:40:22;;;;;;;49.57;23.27;;;15.30;91.80;;;;;;5021969;28;20193;-71
2022/10/12 08:42:58;;;;;;;51.30;23.20;;;15.30;91.20;;;;;;5025654;28;20280;-71
2022/10/12 08:45:34;;;;;;;50.57;22.40;;;15.30;91.20;;;;;;5018751;28;21125;-73
2022/10/12 08:48:10;;;;;;;51.33;22.83;;;15.50;91.20;;;;;;5021570;28;20418;-71
2022/10/12 08:50:47;;;;;;;42.53;22.53;;;15.70;90.90;;;;;;5022640;28;20435;-72
2022/10/12 08:53:21;;;;;;;41.57;20.80;;;15.70;90.30;;;;;;5024068;28;20484;-72
2022/10/12 08:55:47;;;;;;;50.03;23.13;;;15.80;90.10;;;;;;5023213;28;20465;-71
2022/10/12 08:58:13;;;;;;;41.97;19.93;;;15.90;89.90;;;;;;5024653;28;20447;-70
2022/10/12 09:00:38;;;;;;;33.63;18.33;;;16.10;89.90;;;;;;5024774;28;20463;-73
2022/10/12 09:03:37;;;;;;;38.57;19.97;;;16.30;89.30;;;;;;5028638;28;20262;-72
2022/10/12 09:06:22;;;;;;;43.37;20.00;;;16.60;87.80;;;;;;5025592;28;20220;-72
2022/10/12 09:08:53;;;;;;;36.60;19.10;;;16.80;86.90;;;;;;5024589;28;20427;-72
2022/10/12 09:11:44;;;;;;;32.57;16.50;;;16.80;86.00;;;;;;5027202;28;20431;-71
2022/10/12 09:14:34;;;;;;;31.43;16.73;;;16.80;84.00;;;;;;5025466;28;20477;-71
2022/10/12 09:17:05;;;;;;;31.90;15.67;;;16.80;83.60;;;;;;5025787;28;20865;-70
2022/10/12 09:19:39;;;;;;;32.37;16.57;;;16.70;83.40;;;;;;5029842;28;20446;-71
2022/10/12 09:22:16;;;;;;;34.10;15.13;;;16.60;83.60;;;;;;5030449;28;20465;-70
2022/10/12 09:24:44;;;;;;;33.23;15.47;;;16.40;83.30;;;;;;5031421;28;20784;-71
2022/10/12 09:27:18;;;;;;;31.63;14.70;;;16.30;84.30;;;;;;5028953;28;20434;-71
2022/10/12 09:29:47;;;;;;;30.57;15.37;;;16.20;84.40;;;;;;5032622;28;20492;-71
2022/10/12 09:32:12;;;;;;;34.50;14.40;;;16.30;84.30;;;;;;5030802;28;20418;-71
2022/10/12 09:34:38;;;;;;;30.73;16.00;;;16.20;84.30;;;;;;5027880;28;20747;-71
2022/10/12 09:37:05;;;;;;;28.10;14.53;;;16.20;84.10;;;;;;5028810;28;20195;-71
2022/10/12 09:39:34;;;;;;;33.83;15.23;;;16.10;84.10;;;;;;5030262;28;20793;-71
2022/10/12 09:42:00;;;;;;;32.20;15.00;;;16.10;84.10;;;;;;5033045;28;20541;-72
2022/10/12 09:44:39;;;;;;;28.60;13.10;;;16.00;83.70;;;;;;5029906;28;20499;-71
2022/10/12 09:47:26;;;;;;;26.13;13.47;;;16.00;84.00;;;;;;5028936;28;20192;-71
2022/10/12 09:49:56;;;;;;;30.53;14.70;;;16.00;84.00;;;;;;5028127;28;20778;-70
2022/10/12 09:52:28;;;;;;;36.63;14.53;;;16.00;84.10;;;;;;5033686;28;20961;-71
2022/10/12 09:54:58;;;;;;;23.50;12.10;;;16.10;84.00;;;;;;5036425;28;20514;-71
2022/10/12 09:57:30;;;;;;;26.80;13.90;;;16.10;84.10;;;;;;5028472;28;20424;-71
2022/10/12 09:59:56;;;;;;;23.33;13.20;;;16.30;84.00;;;;;;5032227;28;20942;-70
2022/10/12 10:02:23;;;;;;;26.77;13.13;;;16.40;83.60;;;;;;5030305;28;20462;-71
2022/10/12 10:04:50;;;;;;;25.63;12.83;;;16.50;82.40;;;;;;5026400;28;20437;-71
2022/10/12 10:07:29;;;;;;;25.53;11.83;;;16.40;82.10;;;;;;5034256;28;20420;-69
2022/10/12 10:10:14;;;;;;;33.07;13.43;;;16.40;82.70;;;;;;5035701;28;20416;-70
2022/10/12 10:12:53;;;;;;;24.57;13.23;;;16.40;83.00;;;;;;5038671;28;20857;-71
2022/10/12 10:15:31;;;;;;;25.63;11.50;;;16.50;82.50;;;;;;5037472;28;20534;-72
2022/10/12 10:18:04;;;;;;;24.87;12.13;;;16.60;82.70;;;;;;5032926;28;20426;-70
2022/10/12 10:20:35;;;;;;;28.40;14.57;;;16.80;81.80;;;;;;5038992;28;20435;-70
2022/10/12 10:23:02;;;;;;;23.87;11.73;;;16.80;80.80;;;;;;5032410;28;20459;-72
2022/10/12 10:25:29;;;;;;;23.80;12.60;;;16.70;80.60;;;;;;5031563;28;20484;-71
2022/10/12 10:28:09;;;;;;;24.53;13.20;;;16.80;80.60;;;;;;5037766;28;20416;-71
2022/10/12 10:30:35;;;;;;;28.60;13.50;;;16.90;80.30;;;;;;5032459;28;20577;-71
2022/10/12 10:33:17;;;;;;;24.93;12.67;;;16.90;80.30;;;;;;5034072;28;20958;-70
2022/10/12 10:35:59;;;;;;;26.87;12.67;;;16.70;81.10;;;;;;5030210;28;20303;-70
2022/10/12 10:38:24;;;;;;;19.37;11.20;;;16.80;81.10;;;;;;5029708;28;20432;-70
2022/10/12 10:40:56;;;;;;;30.20;12.90;;;16.90;81.20;;;;;;5029751;28;20561;-71
2022/10/12 10:43:30;;;;;;;20.90;11.67;;;16.90;80.20;;;;;;5028692;28;20240;-71
2022/10/12 10:46:02;;;;;;;22.37;12.47;;;16.90;80.20;;;;;;5023822;28;20451;-71
2022/10/12 10:48:50;;;;;;;21.47;12.10;;;17.00;80.50;;;;;;5034416;28;20419;-70
2022/10/12 10:51:15;;;;;;;26.90;12.43;;;17.30;80.30;;;;;;5030234;28;20501;-71
2022/10/12 10:53:44;;;;;;;20.90;10.90;;;17.50;78.70;;;;;;5033559;28;20436;-71
2022/10/12 10:56:12;;;;;;;23.03;11.03;;;17.40;77.80;;;;;;5032231;28;20216;-71
2022/10/12 10:58:46;;;;;;;25.37;12.10;;;17.30;78.10;;;;;;5031722;28;20435;-70
2022/10/12 11:01:18;;;;;;;28.00;13.07;;;17.40;78.40;;;;;;5031711;28;20432;-71
2022/10/12 11:03:48;;;;;;;26.17;12.10;;;17.30;78.30;;;;;;5033113;28;20480;-70
2022/10/12 11:06:22;;;;;;;26.50;12.17;;;17.40;78.30;;;;;;5026774;28;20470;-71
2022/10/12 11:08:51;;;;;;;26.33;12.00;;;17.50;78.10;;;;;;5031636;28;20524;-71
2022/10/12 11:11:23;;;;;;;25.13;10.97;;;17.40;78.30;;;;;;5032819;28;20470;-70
2022/10/12 11:13:59;;;;;;;25.67;11.60;;;17.30;78.30;;;;;;5031586;28;20525;-70
2022/10/12 11:16:42;;;;;;;24.60;11.80;;;17.30;78.60;;;;;;5029367;28;20462;-71
2022/10/12 11:19:28;;;;;;;23.20;11.33;;;17.40;78.70;;;;;;5033123;28;20436;-70
2022/10/12 11:22:03;;;;;;;27.10;12.20;;;17.50;78.70;;;;;;5035902;28;20420;-71
2022/10/12 11:24:41;;;;;;;25.33;11.60;;;17.40;78.70;;;;;;5037761;28;20423;-72
2022/10/12 11:27:21;;;;;;;24.57;12.57;;;17.50;79.20;;;;;;5041825;28;20809;-70
2022/10/12 11:29:48;;;;;;;22.50;11.60;;;17.50;77.60;;;;;;5039082;28;20455;-71
2022/10/12 11:32:25;;;;;;;21.50;10.67;;;17.50;78.00;;;;;;5032062;28;20415;-70
2022/10/12 11:34:58;;;;;;;22.23;10.97;;;17.70;77.80;;;;;;5031845;28;20522;-74
2022/10/12 11:37:35;;;;;;;26.37;12.00;;;18.00;77.10;;;;;;5030633;28;20507;-72
2022/10/12 11:40:03;;;;;;;24.87;12.63;;;18.10;76.40;;;;;;5027461;28;20442;-71
2022/10/12 11:42:40;;;;;;;24.73;11.00;;;18.00;75.50;;;;;;5026774;28;20485;-70
2022/10/12 11:45:32;;;;;;;31.23;12.57;;;18.00;76.50;;;;;;5026315;28;20520;-72
2022/10/12 11:48:11;;;;;;;20.10;11.40;;;18.00;76.10;;;;;;5024627;28;20977;-70
2022/10/12 11:50:43;;;;;;;22.50;12.03;;;17.90;76.40;;;;;;5028481;28;20418;-72
2022/10/12 11:53:24;;;;;;;21.43;11.10;;;17.90;76.10;;;;;;5026138;28;20452;-71
2022/10/12 11:56:21;;;;;;;17.33;8.87;;;17.90;76.70;;;;;;5025810;28;20467;-73
2022/10/12 11:58:51;;;;;;;23.90;12.70;;;18.00;77.10;;;;;;5031230;28;20426;-72
2022/10/12 12:02:03;;;;;;;21.77;11.63;;;18.10;76.50;;;;;;5046769;28;20424;-72
2022/10/12 12:04:36;;;;;;;25.47;14.40;;;18.20;75.90;;;;;;4946308;29;20444;-71
2022/10/12 12:07:37;;;;;;;19.40;10.80;;;18.30;75.40;;;;;;4944652;29;20733;-70
2022/10/12 12:10:33;;;;;;;19.17;10.30;;;18.30;74.90;;;;;;4946797;28;20433;-73
2022/10/12 12:13:16;;;;;;;19.43;10.60;;;18.10;75.70;;;;;;4940921;29;20498;-71
2022/10/12 12:15:50;;;;;;;24.60;11.80;;;18.10;76.20;;;;;;4948113;29;20468;-72
2022/10/12 12:18:24;;;;;;;24.67;10.27;;;18.10;75.90;;;;;;4947392;29;20495;-72
2022/10/12 12:21:07;;;;;;;23.07;10.20;;;18.10;76.20;;;;;;4942684;28;20824;-71
2022/10/12 12:23:38;;;;;;;20.03;9.40;;;18.00;75.90;;;;;;4949166;29;20479;-72
2022/10/12 12:26:05;;;;;;;17.77;9.40;;;18.00;76.50;;;;;;4947252;28;20550;-72
2022/10/12 12:28:32;;;;;;;24.50;11.13;;;18.00;76.80;;;;;;4940963;29;20491;-70
2022/10/12 12:31:13;;;;;;;16.33;9.87;;;18.10;76.40;;;;;;4923506;29;20965;-72
2022/10/12 12:33:41;;;;;;;17.90;8.40;;;18.20;76.40;;;;;;4945569;29;21037;-71
2022/10/12 12:36:35;;;;;;;34.63;16.40;;;18.30;75.80;;;;;;5010202;28;20563;-72
2022/10/12 12:39:03;;;;;;;17.83;9.97;;;18.50;74.90;;;;;;5021569;28;20436;-71
2022/10/12 12:41:55;;;;;;;21.07;9.70;;;18.40;74.50;;;;;;5031361;28;20464;-70
2022/10/12 12:44:41;;;;;;;17.30;8.70;;;18.30;74.50;;;;;;5037047;28;20424;-71